Time;durP1;ratioP1;P1;durP2;ratioP2;P2;SDS_P1;SDS_P2;PMS_P1;PMS_P2;Temp;Humidity;BMP_temperature;BMP_pressure;BME280_temperature;BME280_humidity;BME280_pressure;Samples;Min_cycle;Max_cycle;Signal;HPM_P1;HPM_P2
2021/06/26 00:02:39;;;;;;;6.30;2.95;;;;;;;;;;6110055;23;20519;-90
2021/06/26 00:05:44;;;;;;;7.03;2.65;;;;;;;;;;6109452;23;20679;-90
2021/06/26 00:08:51;;;;;;;3.95;2.70;;;;;;;;;;6111200;23;20169;-90
2021/06/26 00:11:57;;;;;;;4.20;2.78;;;;;;;;;;6110094;23;20183;-90
2021/06/26 00:15:02;;;;;;;4.95;2.88;;;;;;;;;;6108930;23;20166;-89
2021/06/26 00:18:09;;;;;;;5.38;2.53;;;;;;;;;;6108785;23;20241;-91
2021/06/26 00:21:15;;;;;;;3.90;2.60;;;;;;;;;;6111987;23;20218;-91
2021/06/26 00:24:20;;;;;;;7.88;3.10;;;;;;;;;;6108178;23;20197;-91
2021/06/26 00:27:24;;;;;;;5.60;2.65;;;;;;;;;;6109570;23;20166;-91
2021/06/26 00:30:29;;;;;;;4.78;2.65;;;;;;;;;;6108315;23;20165;-91
2021/06/26 00:33:36;;;;;;;7.70;2.78;;;;;;;;;;6109381;23;20166;-91
2021/06/26 00:36:41;;;;;;;7.63;3.33;;;;;;;;;;6110088;23;20162;-90
2021/06/26 00:39:46;;;;;;;5.78;2.60;;;;;;;;;;6109610;23;20170;-90
2021/06/26 00:42:51;;;;;;;8.05;3.00;;;;;;;;;;6108239;23;20238;-89
2021/06/26 00:45:57;;;;;;;7.53;3.10;;;;;;;;;;6108881;23;20178;-91
2021/06/26 00:49:04;;;;;;;6.65;2.90;;;;;;;;;;6115527;23;20198;-91
2021/06/26 00:52:11;;;;;;;8.00;2.95;;;;;;;;;;6112798;23;20617;-90
2021/06/26 00:55:18;;;;;;;8.30;3.10;;;;;;;;;;6112683;23;20178;-91
2021/06/26 00:58:24;;;;;;;9.45;2.90;;;;;;;;;;6111281;23;20178;-91
2021/06/26 01:01:29;;;;;;;4.82;2.60;;;;;;;;;;6111534;23;20154;-90
2021/06/26 01:04:37;;;;;;;3.97;3.05;;;;;;;;;;6114593;23;20185;-92
2021/06/26 01:11:03;;;;;;;7.10;2.70;;;;;;;;;;6114635;23;20165;-91
2021/06/26 01:14:11;;;;;;;4.65;2.63;;;;;;;;;;6111816;23;20158;-91
2021/06/26 01:17:16;;;;;;;10.70;2.72;;;;;;;;;;6111657;23;20617;-89
2021/06/26 01:20:24;;;;;;;4.38;2.72;;;;;;;;;;6113195;23;20205;-91
2021/06/26 01:23:30;;;;;;;4.47;2.53;;;;;;;;;;6114477;23;20316;-91
2021/06/26 01:26:36;;;;;;;6.85;2.88;;;;;;;;;;6113960;23;20214;-89
2021/06/26 01:29:47;;;;;;;5.57;2.97;;;;;;;;;;6113009;23;20276;-89
2021/06/26 01:32:52;;;;;;;5.45;2.60;;;;;;;;;;6113225;23;20155;-91
2021/06/26 01:35:58;;;;;;;6.65;2.78;;;;;;;;;;6112473;23;20158;-90
2021/06/26 01:39:05;;;;;;;4.47;2.85;;;;;;;;;;6114027;23;20174;-91
2021/06/26 01:42:11;;;;;;;8.30;2.80;;;;;;;;;;6113399;23;20169;-92
2021/06/26 01:45:17;;;;;;;7.65;3.97;;;;;;;;;;6112339;23;20657;-91
2021/06/26 01:48:23;;;;;;;6.93;3.25;;;;;;;;;;6111910;23;20166;-92
2021/06/26 01:51:32;;;;;;;5.15;3.00;;;;;;;;;;6111096;23;20165;-90
2021/06/26 01:54:38;;;;;;;4.38;3.30;;;;;;;;;;6111160;23;20610;-92
2021/06/26 01:57:43;;;;;;;8.13;3.40;;;;;;;;;;6111390;23;20245;-90
2021/06/26 02:00:49;;;;;;;7.57;3.15;;;;;;;;;;6110523;23;20250;-88
2021/06/26 02:03:54;;;;;;;8.63;3.13;;;;;;;;;;6111295;23;20226;-91
2021/06/26 02:06:59;;;;;;;5.07;3.00;;;;;;;;;;6112290;23;20290;-90
2021/06/26 02:10:07;;;;;;;8.10;3.15;;;;;;;;;;6112343;23;20174;-91
2021/06/26 02:13:12;;;;;;;7.53;3.08;;;;;;;;;;6111562;23;20245;-90
2021/06/26 02:16:16;;;;;;;4.43;3.08;;;;;;;;;;6113497;23;20161;-90
2021/06/26 02:19:21;;;;;;;5.00;3.10;;;;;;;;;;6112012;23;20669;-91
2021/06/26 02:22:26;;;;;;;11.43;3.58;;;;;;;;;;6111388;23;20169;-91
2021/06/26 02:25:33;;;;;;;10.20;3.80;;;;;;;;;;6112586;23;20218;-91
2021/06/26 02:28:38;;;;;;;8.32;3.47;;;;;;;;;;6111521;23;20174;-91
2021/06/26 02:31:44;;;;;;;7.80;3.25;;;;;;;;;;6110590;23;20286;-91
2021/06/26 02:34:52;;;;;;;8.50;3.40;;;;;;;;;;6109449;23;20228;-91
2021/06/26 02:37:57;;;;;;;6.93;3.97;;;;;;;;;;6109535;23;20171;-90
2021/06/26 02:41:04;;;;;;;6.15;3.67;;;;;;;;;;6110652;23;20169;-90
2021/06/26 02:44:09;;;;;;;6.90;4.00;;;;;;;;;;6109580;23;20209;-92
2021/06/26 02:47:14;;;;;;;7.65;3.65;;;;;;;;;;6108090;23;20283;-90
2021/06/26 02:50:19;;;;;;;8.32;3.60;;;;;;;;;;6108344;23;20170;-91
2021/06/26 02:53:24;;;;;;;7.65;3.20;;;;;;;;;;6109189;23;20158;-91
2021/06/26 02:56:30;;;;;;;5.32;3.53;;;;;;;;;;6108610;23;20262;-89
2021/06/26 02:59:36;;;;;;;6.40;3.70;;;;;;;;;;6109372;23;20157;-91
2021/06/26 03:02:41;;;;;;;10.75;3.47;;;;;;;;;;6109547;23;20614;-91
2021/06/26 03:05:46;;;;;;;10.65;3.78;;;;;;;;;;6108175;23;20302;-91
2021/06/26 03:08:51;;;;;;;5.85;3.60;;;;;;;;;;6108174;23;20173;-91
2021/06/26 03:11:57;;;;;;;7.05;3.65;;;;;;;;;;6109128;23;20170;-91
2021/06/26 03:15:02;;;;;;;6.82;3.90;;;;;;;;;;6108645;23;20165;-90
2021/06/26 03:18:07;;;;;;;6.93;3.50;;;;;;;;;;6109031;23;20228;-90
2021/06/26 03:21:12;;;;;;;10.30;3.85;;;;;;;;;;6108237;23;20637;-90
2021/06/26 03:24:17;;;;;;;8.27;5.53;;;;;;;;;;6106417;23;20263;-90
2021/06/26 03:27:23;;;;;;;11.82;6.13;;;;;;;;;;6109094;23;20183;-92
2021/06/26 03:30:28;;;;;;;10.93;5.88;;;;;;;;;;6107961;23;20174;-89
2021/06/26 03:33:33;;;;;;;11.32;6.05;;;;;;;;;;6110106;23;20194;-91
2021/06/26 03:36:38;;;;;;;12.70;7.30;;;;;;;;;;6109246;23;20174;-91
2021/06/26 03:39:44;;;;;;;10.50;7.00;;;;;;;;;;6109258;23;20218;-91
2021/06/26 03:42:51;;;;;;;16.20;8.68;;;;;;;;;;6110421;23;20189;-90
2021/06/26 03:45:56;;;;;;;16.00;7.63;;;;;;;;;;6110108;23;20174;-91
2021/06/26 03:49:01;;;;;;;17.30;8.13;;;;;;;;;;6110415;23;20170;-90
2021/06/26 03:52:07;;;;;;;10.90;6.32;;;;;;;;;;6110276;23;20169;-92
2021/06/26 03:55:12;;;;;;;12.30;7.20;;;;;;;;;;6110184;23;20494;-90
2021/06/26 03:58:18;;;;;;;13.57;7.95;;;;;;;;;;6108817;23;20165;-92
2021/06/26 04:01:27;;;;;;;15.20;7.88;;;;;;;;;;6110686;23;20307;-90
2021/06/26 04:04:32;;;;;;;10.63;7.13;;;;;;;;;;6110390;23;20206;-90
2021/06/26 04:07:37;;;;;;;12.63;7.47;;;;;;;;;;6110341;23;20174;-91
2021/06/26 04:10:42;;;;;;;12.48;7.88;;;;;;;;;;6112719;23;20157;-91
2021/06/26 04:13:48;;;;;;;10.75;6.95;;;;;;;;;;6110343;23;20202;-90
2021/06/26 04:16:55;;;;;;;14.23;7.75;;;;;;;;;;6110688;23;20165;-91
2021/06/26 04:20:00;;;;;;;13.18;7.53;;;;;;;;;;6110830;23;20170;-90
2021/06/26 04:23:04;;;;;;;12.45;7.65;;;;;;;;;;6110694;23;20173;-91
2021/06/26 04:26:09;;;;;;;22.70;7.40;;;;;;;;;;6112116;23;20174;-92
2021/06/26 04:29:16;;;;;;;13.40;7.30;;;;;;;;;;6110686;23;20186;-91
2021/06/26 04:32:21;;;;;;;11.20;6.70;;;;;;;;;;6109613;23;20174;-91
2021/06/26 04:35:27;;;;;;;10.55;6.72;;;;;;;;;;6111675;23;20154;-91
2021/06/26 04:38:32;;;;;;;9.77;6.63;;;;;;;;;;6111888;23;20170;-92
2021/06/26 04:41:37;;;;;;;11.25;7.10;;;;;;;;;;6111711;23;20170;-91
2021/06/26 04:44:43;;;;;;;13.60;7.10;;;;;;;;;;6110104;23;20208;-91
2021/06/26 04:47:48;;;;;;;12.18;7.15;;;;;;;;;;6107970;23;20170;-91
2021/06/26 04:50:53;;;;;;;14.40;7.00;;;;;;;;;;6108100;23;20226;-91
2021/06/26 04:53:58;;;;;;;11.57;6.63;;;;;;;;;;6108435;23;20182;-90
2021/06/26 04:57:03;;;;;;;9.80;6.43;;;;;;;;;;6108589;23;20169;-90
2021/06/26 05:00:12;;;;;;;9.85;6.40;;;;;;;;;;6108326;23;20203;-90
2021/06/26 05:03:17;;;;;;;11.52;6.53;;;;;;;;;;6109446;23;20244;-89
2021/06/26 05:06:22;;;;;;;10.45;5.50;;;;;;;;;;6110044;23;20173;-91
2021/06/26 05:09:27;;;;;;;10.00;6.07;;;;;;;;;;6110472;23;20174;-90
2021/06/26 05:12:32;;;;;;;8.70;5.93;;;;;;;;;;6109676;23;20264;-90
2021/06/26 05:15:39;;;;;;;12.73;6.28;;;;;;;;;;6109973;23;20177;-90
2021/06/26 05:18:45;;;;;;;7.32;5.20;;;;;;;;;;6111074;23;20169;-91
2021/06/26 05:21:50;;;;;;;8.10;5.57;;;;;;;;;;6108890;23;20669;-91
2021/06/26 05:24:55;;;;;;;9.80;5.57;;;;;;;;;;6109129;23;20209;-91
2021/06/26 05:28:00;;;;;;;8.00;5.47;;;;;;;;;;6109925;23;20154;-90
2021/06/26 05:31:07;;;;;;;10.13;5.57;;;;;;;;;;6110644;23;20174;-90
2021/06/26 05:34:12;;;;;;;11.13;5.82;;;;;;;;;;6111108;23;20698;-91
2021/06/26 05:37:18;;;;;;;9.23;5.80;;;;;;;;;;6110519;23;20166;-90
2021/06/26 05:40:23;;;;;;;9.55;5.95;;;;;;;;;;6111627;23;20191;-89
2021/06/26 05:43:28;;;;;;;12.70;5.65;;;;;;;;;;6110950;23;20206;-90
2021/06/26 05:46:35;;;;;;;8.75;5.57;;;;;;;;;;6113065;23;20510;-91
2021/06/26 05:49:40;;;;;;;14.77;6.63;;;;;;;;;;6109849;23;20283;-91
2021/06/26 05:52:46;;;;;;;8.90;5.53;;;;;;;;;;6109100;23;20199;-90
2021/06/26 05:56:01;;;;;;;11.20;5.93;;;;;;;;;;6111690;23;20206;-91
2021/06/26 05:59:06;;;;;;;9.38;5.78;;;;;;;;;;6111101;23;20190;-91
2021/06/26 06:02:15;;;;;;;8.88;5.50;;;;;;;;;;6112206;23;20165;-91
2021/06/26 06:05:20;;;;;;;9.85;5.40;;;;;;;;;;6113400;23;20197;-90
2021/06/26 06:08:25;;;;;;;10.88;6.28;;;;;;;;;;6110805;23;20170;-91
2021/06/26 06:11:30;;;;;;;8.52;5.47;;;;;;;;;;6112316;23;20181;-91
2021/06/26 06:14:36;;;;;;;9.65;5.47;;;;;;;;;;6113964;23;20175;-90
2021/06/26 06:17:44;;;;;;;7.93;5.40;;;;;;;;;;6097828;23;20170;-88
2021/06/26 06:20:49;;;;;;;7.68;5.13;;;;;;;;;;6111087;23;20242;-90
2021/06/26 06:23:55;;;;;;;9.07;5.18;;;;;;;;;;6112073;23;20170;-90
2021/06/26 06:27:00;;;;;;;9.10;5.50;;;;;;;;;;6109743;23;20157;-91
2021/06/26 06:30:06;;;;;;;9.18;4.88;;;;;;;;;;6114719;23;20154;-91
2021/06/26 06:33:16;;;;;;;9.23;5.30;;;;;;;;;;6110348;23;20793;-89
2021/06/26 06:36:21;;;;;;;8.65;4.80;;;;;;;;;;6111360;23;20222;-90
2021/06/26 06:39:26;;;;;;;9.85;5.20;;;;;;;;;;6113382;23;20212;-90
2021/06/26 06:42:31;;;;;;;10.52;5.00;;;;;;;;;;6113402;23;20157;-91
2021/06/26 06:45:37;;;;;;;8.30;5.15;;;;;;;;;;6113463;23;20202;-91
2021/06/26 06:48:45;;;;;;;7.25;5.28;;;;;;;;;;6111531;23;20165;-91
2021/06/26 06:51:52;;;;;;;8.50;4.95;;;;;;;;;;6112180;23;20170;-91
2021/06/26 06:54:58;;;;;;;9.40;5.70;;;;;;;;;;6112369;23;20177;-91
2021/06/26 06:58:03;;;;;;;7.50;4.93;;;;;;;;;;6113258;23;20174;-90
2021/06/26 07:01:08;;;;;;;8.77;4.68;;;;;;;;;;6111563;23;20218;-91
2021/06/26 07:04:15;;;;;;;6.53;4.15;;;;;;;;;;6110915;23;20510;-89
2021/06/26 07:07:20;;;;;;;6.65;4.22;;;;;;;;;;6111426;23;20178;-91
2021/06/26 07:10:26;;;;;;;6.75;4.18;;;;;;;;;;6114441;23;20195;-91
2021/06/26 07:13:31;;;;;;;9.32;4.22;;;;;;;;;;6109499;23;20170;-91
2021/06/26 07:16:36;;;;;;;6.90;3.72;;;;;;;;;;6110524;23;20178;-92
2021/06/26 07:19:45;;;;;;;8.43;3.75;;;;;;;;;;6111408;23;20199;-90
2021/06/26 07:22:51;;;;;;;5.43;3.58;;;;;;;;;;6113303;23;20162;-91
2021/06/26 07:25:56;;;;;;;7.57;3.92;;;;;;;;;;6113270;23;20298;-89
2021/06/26 07:29:01;;;;;;;5.57;3.70;;;;;;;;;;6113375;23;20166;-93
2021/06/26 07:32:14;;;;;;;5.72;3.67;;;;;;;;;;6111480;23;20214;-92
2021/06/26 07:35:20;;;;;;;5.13;3.35;;;;;;;;;;6116714;23;20202;-91
2021/06/26 07:38:26;;;;;;;5.65;3.25;;;;;;;;;;6112402;23;20169;-93
2021/06/26 07:41:31;;;;;;;7.25;3.35;;;;;;;;;;6114770;23;20194;-93
2021/06/26 07:44:40;;;;;;;4.47;3.00;;;;;;;;;;6113376;23;20270;-91
2021/06/26 07:47:46;;;;;;;3.60;2.63;;;;;;;;;;6111480;23;20157;-92
2021/06/26 07:50:52;;;;;;;5.93;2.60;;;;;;;;;;6113060;23;20169;-92
2021/06/26 07:53:58;;;;;;;3.83;2.45;;;;;;;;;;6112588;23;20153;-91
2021/06/26 07:57:04;;;;;;;3.85;2.80;;;;;;;;;;6113098;23;20173;-92
2021/06/26 08:00:10;;;;;;;6.30;2.55;;;;;;;;;;6112595;23;20182;-91
2021/06/26 08:03:15;;;;;;;5.32;2.17;;;;;;;;;;6114244;23;20169;-91
2021/06/26 08:06:22;;;;;;;3.05;2.22;;;;;;;;;;6110946;23;20202;-90
2021/06/26 08:09:27;;;;;;;3.17;2.22;;;;;;;;;;6113959;23;20158;-91
2021/06/26 08:12:33;;;;;;;4.50;2.53;;;;;;;;;;6114676;23;20218;-92
2021/06/26 08:15:38;;;;;;;4.47;2.20;;;;;;;;;;6110618;23;20173;-92
2021/06/26 08:18:44;;;;;;;4.25;2.35;;;;;;;;;;6113340;23;20170;-93
2021/06/26 08:21:50;;;;;;;3.13;2.45;;;;;;;;;;6112115;23;20158;-93
2021/06/26 08:24:55;;;;;;;5.13;2.60;;;;;;;;;;6110683;23;20189;-93
2021/06/26 08:28:01;;;;;;;7.32;4.47;;;;;;;;;;6111753;23;20174;-92
2021/06/26 08:31:06;;;;;;;6.03;3.10;;;;;;;;;;6113436;23;20174;-92
2021/06/26 08:34:11;;;;;;;4.15;2.40;;;;;;;;;;6114834;23;20173;-92
2021/06/26 08:37:18;;;;;;;3.30;2.10;;;;;;;;;;6111422;23;20173;-93
2021/06/26 08:40:24;;;;;;;2.25;1.98;;;;;;;;;;6113594;23;20243;-91
2021/06/26 08:43:29;;;;;;;2.95;1.60;;;;;;;;;;6108987;23;20263;-92
2021/06/26 08:46:39;;;;;;;4.63;2.55;;;;;;;;;;6110947;23;20322;-92
2021/06/26 08:49:44;;;;;;;2.75;2.25;;;;;;;;;;6108677;23;20245;-93
2021/06/26 08:52:50;;;;;;;2.03;1.77;;;;;;;;;;6109829;23;20170;-92
2021/06/26 08:55:55;;;;;;;3.17;1.90;;;;;;;;;;6109261;23;20188;-92
2021/06/26 08:59:01;;;;;;;3.25;2.40;;;;;;;;;;6109468;23;20198;-91
2021/06/26 09:02:07;;;;;;;2.65;1.70;;;;;;;;;;6110600;23;20280;-91
2021/06/26 09:05:12;;;;;;;2.08;1.75;;;;;;;;;;6112543;23;20188;-92
2021/06/26 09:08:20;;;;;;;2.20;1.88;;;;;;;;;;6112466;23;20169;-93
2021/06/26 09:11:25;;;;;;;3.95;2.08;;;;;;;;;;6110471;23;20281;-92
2021/06/26 09:14:30;;;;;;;2.28;1.70;;;;;;;;;;6113249;23;20172;-92
2021/06/26 09:17:38;;;;;;;4.97;1.80;;;;;;;;;;6112413;23;20172;-92
2021/06/26 09:20:45;;;;;;;1.70;1.60;;;;;;;;;;6113092;23;20169;-92
2021/06/26 09:24:04;;;;;;;2.55;2.03;;;;;;;;;;6113143;23;20177;-92
2021/06/26 09:27:13;;;;;;;2.85;1.70;;;;;;;;;;6111945;23;20222;-92
2021/06/26 09:30:32;;;;;;;4.15;2.10;;;;;;;;;;6112075;23;20148;-93
2021/06/26 09:33:39;;;;;;;4.80;1.70;;;;;;;;;;6114169;23;20246;-93
2021/06/26 09:36:45;;;;;;;1.95;1.60;;;;;;;;;;6114538;23;20217;-91
2021/06/26 12:38:50;;;;;;;1.92;1.33;;;;;;;;;;6172481;22;20211;-91
2021/06/26 12:42:00;;;;;;;1.67;1.25;;;;;;;;;;6183194;23;20170;-92
2021/06/26 12:45:06;;;;;;;1.10;1.00;;;;;;;;;;6183463;22;20548;-92
2021/06/26 12:48:14;;;;;;;1.90;1.40;;;;;;;;;;6186334;23;20211;-91
2021/06/26 13:24:16;;;;;;;1.20;1.10;;;;;;;;;;6174129;23;20184;-92
2021/06/26 13:27:24;;;;;;;3.22;1.10;;;;;;;;;;6156592;23;20199;-91
2021/06/26 13:30:30;;;;;;;1.20;1.10;;;;;;;;;;6157508;23;20159;-91
2021/06/26 13:33:35;;;;;;;1.52;1.33;;;;;;;;;;6157573;23;20156;-90
2021/06/26 13:36:40;;;;;;;1.65;1.40;;;;;;;;;;6157845;23;20212;-91
2021/06/26 13:39:46;;;;;;;3.97;1.13;;;;;;;;;;6173916;23;20164;-91
2021/06/26 13:42:53;;;;;;;1.30;1.20;;;;;;;;;;6157112;23;20229;-91
2021/06/26 13:45:59;;;;;;;2.88;1.23;;;;;;;;;;6173346;23;20195;-91
2021/06/26 13:49:04;;;;;;;1.67;1.20;;;;;;;;;;6173147;23;20172;-93
2021/06/26 13:52:10;;;;;;;2.42;1.50;;;;;;;;;;6172050;23;20170;-91
2021/06/26 22:01:15;;;;;;;7.45;5.25;;;;;;;;;;6140919;22;20212;-92
2021/06/26 22:04:21;;;;;;;8.75;5.10;;;;;;;;;;6188800;23;20216;-92
2021/06/26 22:07:27;;;;;;;8.43;4.68;;;;;;;;;;6189126;23;20180;-93
2021/06/26 22:10:33;;;;;;;11.02;5.75;;;;;;;;;;6189107;22;20187;-92
2021/06/26 22:18:09;;;;;;;7.97;4.80;;;;;;;;;;6181357;22;20199;-91
2021/06/26 22:21:15;;;;;;;8.00;4.55;;;;;;;;;;6188787;22;20172;-92
2021/06/26 22:24:22;;;;;;;8.00;4.32;;;;;;;;;;6188065;23;20172;-92
2021/06/26 22:27:29;;;;;;;11.65;5.00;;;;;;;;;;6187828;23;20239;-91
2021/06/26 22:30:34;;;;;;;8.18;4.47;;;;;;;;;;6187664;23;20187;-92
2021/06/26 22:33:42;;;;;;;7.55;4.57;;;;;;;;;;6188292;23;20172;-91
2021/06/26 22:36:49;;;;;;;7.30;5.05;;;;;;;;;;6187803;22;20169;-92
2021/06/26 22:39:55;;;;;;;12.75;5.57;;;;;;;;;;6186949;23;20180;-92
2021/06/26 22:46:20;;;;;;;11.55;6.30;;;;;;;;;;6189398;23;20180;-91
2021/06/26 22:49:27;;;;;;;9.05;5.38;;;;;;;;;;6189384;23;20607;-92
2021/06/26 22:52:33;;;;;;;9.35;5.18;;;;;;;;;;6185231;22;20179;-91
2021/06/26 22:55:39;;;;;;;7.75;5.32;;;;;;;;;;6188080;22;20155;-92
2021/06/26 22:58:44;;;;;;;10.77;5.60;;;;;;;;;;6187518;23;20171;-93
2021/06/26 23:01:50;;;;;;;7.85;5.38;;;;;;;;;;6186338;23;20208;-91
2021/06/26 23:04:57;;;;;;;6.57;4.78;;;;;;;;;;6185333;22;20232;-92
2021/06/26 23:08:05;;;;;;;7.95;5.05;;;;;;;;;;6187711;22;20184;-90
2021/06/26 23:11:10;;;;;;;8.75;5.53;;;;;;;;;;6185711;22;20172;-91
2021/06/26 23:14:15;;;;;;;8.45;5.15;;;;;;;;;;6186627;22;20152;-92
2021/06/26 23:17:21;;;;;;;10.23;5.05;;;;;;;;;;6185458;23;20662;-91
2021/06/26 23:20:30;;;;;;;10.68;5.40;;;;;;;;;;6185192;23;20156;-91
2021/06/26 23:23:39;;;;;;;10.32;5.47;;;;;;;;;;6186355;22;20233;-91
2021/06/26 23:26:45;;;;;;;11.18;5.78;;;;;;;;;;6185642;22;20223;-90
2021/06/26 23:29:50;;;;;;;10.00;5.90;;;;;;;;;;6186533;23;20239;-91
2021/06/26 23:32:56;;;;;;;8.82;5.75;;;;;;;;;;6186319;23;20172;-90
2021/06/26 23:36:02;;;;;;;8.02;5.75;;;;;;;;;;6184514;23;20243;-91
2021/06/26 23:39:08;;;;;;;8.25;5.50;;;;;;;;;;6185105;22;20191;-91
2021/06/26 23:42:13;;;;;;;9.73;5.38;;;;;;;;;;6186847;22;20250;-92
2021/06/26 23:45:20;;;;;;;9.77;5.50;;;;;;;;;;6186502;23;20180;-91
2021/06/26 23:48:27;;;;;;;12.95;5.60;;;;;;;;;;6185592;23;20171;-90
2021/06/26 23:51:36;;;;;;;9.73;6.20;;;;;;;;;;6186801;23;20188;-91
2021/06/26 23:54:41;;;;;;;10.65;6.05;;;;;;;;;;6186582;22;20188;-93
2021/06/26 23:57:49;;;;;;;8.65;5.60;;;;;;;;;;6185299;23;20215;-91
